createdAt,value
2022-08-20T00:00:02.336Z,71.804
2022-08-20T00:07:01.732Z,71.804
2022-08-20T00:14:01.528Z,71.868
2022-08-20T00:21:01.568Z,71.868
2022-08-20T00:28:01.599Z,73.059
2022-08-20T00:35:01.917Z,73.059
2022-08-20T00:42:02.249Z,75.002
2022-08-20T00:49:02.337Z,75.886
2022-08-20T00:56:02.150Z,75.886
2022-08-20T01:00:01.697Z,75.886
2022-08-20T01:07:02.136Z,76.78
2022-08-20T01:14:01.980Z,78.003
2022-08-20T01:21:02.315Z,78.003
2022-08-20T01:28:01.849Z,78.76
2022-08-20T01:35:01.836Z,78.76
2022-08-20T01:42:01.669Z,79.031
2022-08-20T01:49:01.384Z,79.031
2022-08-20T01:56:01.974Z,79.759
2022-08-20T02:00:01.585Z,79.759
2022-08-20T02:07:01.885Z,80.393
2022-08-20T02:14:01.887Z,80.393
2022-08-20T02:21:01.543Z,80.068
2022-08-20T02:28:01.433Z,80.068
2022-08-20T02:35:01.888Z,80.528
2022-08-20T02:42:01.843Z,80.528
2022-08-20T02:49:01.538Z,80.614
2022-08-20T02:56:02.205Z,80.614
2022-08-20T03:00:01.851Z,80.946
2022-08-20T03:07:01.567Z,80.946
2022-08-20T03:14:02.243Z,81.411
2022-08-20T03:21:01.882Z,81.411
2022-08-20T03:28:02.294Z,81.578
2022-08-20T03:35:01.893Z,81.578
2022-08-20T03:42:01.994Z,81.826
2022-08-20T03:49:02.084Z,81.982
2022-08-20T03:56:02.463Z,81.982
2022-08-20T04:00:02.180Z,81.982
2022-08-20T04:07:01.971Z,82.192
2022-08-20T04:14:01.395Z,82.357
2022-08-20T04:21:02.237Z,82.357
2022-08-20T04:28:01.634Z,83.707
2022-08-20T04:35:01.760Z,83.707
2022-08-20T04:42:01.929Z,84.4
2022-08-20T04:49:01.373Z,84.4
2022-08-20T04:56:01.354Z,83.52
2022-08-20T05:00:02.023Z,83.52
2022-08-20T05:07:01.844Z,83.53
2022-08-20T05:14:01.916Z,83.53
2022-08-20T05:21:01.419Z,83.653
2022-08-20T05:28:01.541Z,83.653
2022-08-20T05:35:01.742Z,84.121
2022-08-20T05:42:01.992Z,84.121
2022-08-20T05:49:02.183Z,84.463
2022-08-20T05:56:02.094Z,84.463
2022-08-20T06:00:01.662Z,85.102
2022-08-20T06:07:02.180Z,85.102
2022-08-20T06:14:01.846Z,84.757
2022-08-20T06:21:01.480Z,84.757
2022-08-20T06:28:01.496Z,84.688
2022-08-20T06:35:03.681Z,84.688
2022-08-20T06:42:02.176Z,84.828
2022-08-20T06:49:01.792Z,85.085
2022-08-20T06:56:02.033Z,85.085
2022-08-20T07:00:01.621Z,85.085
2022-08-20T07:07:01.811Z,85.297
2022-08-20T07:14:02.010Z,85.394
2022-08-20T07:21:01.735Z,85.394
2022-08-20T07:28:02.288Z,86.043
2022-08-20T07:35:02.535Z,86.043
2022-08-20T07:42:01.966Z,85.583
2022-08-20T07:49:01.710Z,85.583
2022-08-20T07:56:02.166Z,85.256
2022-08-20T08:00:01.807Z,85.256
2022-08-20T08:07:01.382Z,85.001
2022-08-20T08:14:01.561Z,85.001
2022-08-20T08:21:01.739Z,85.565
2022-08-20T08:28:01.424Z,85.565
2022-08-20T08:35:02.065Z,84.923
2022-08-20T08:42:02.048Z,84.923
2022-08-20T08:49:01.830Z,84.848
2022-08-20T08:56:02.097Z,84.848
2022-08-20T09:00:04.864Z,84.642
2022-08-20T09:07:01.567Z,84.642
2022-08-20T09:14:01.721Z,84.666
2022-08-20T09:21:01.541Z,84.666
2022-08-20T09:28:01.916Z,84.164
2022-08-20T09:35:05.622Z,84.164
2022-08-20T09:42:02.194Z,84.051
2022-08-20T09:49:02.198Z,84.074
2022-08-20T09:56:01.976Z,84.074
2022-08-20T10:00:01.567Z,84.074
2022-08-20T10:07:01.756Z,83.913
2022-08-20T10:14:02.147Z,83.913
2022-08-20T10:21:02.009Z,83.56
2022-08-20T10:28:01.661Z,83.564
2022-08-20T10:35:02.505Z,83.564
2022-08-20T10:42:02.282Z,83.417
2022-08-20T10:49:01.406Z,83.417
2022-08-20T10:56:01.984Z,83.256
2022-08-20T11:00:01.517Z,83.256
2022-08-20T11:07:02.286Z,83.122
2022-08-20T11:14:01.387Z,83.122
2022-08-20T11:21:01.693Z,82.908
2022-08-20T11:28:01.921Z,82.908
2022-08-20T11:35:13.771Z,82.291
2022-08-20T11:42:02.334Z,82.291
2022-08-20T11:49:01.567Z,81.801
2022-08-20T11:56:01.517Z,81.801
2022-08-20T12:00:02.068Z,81.12
2022-08-20T12:07:02.030Z,81.12
2022-08-20T12:14:01.930Z,80.212
2022-08-20T12:21:01.413Z,80.212
2022-08-20T12:28:01.903Z,79.382
2022-08-20T12:35:01.877Z,79.382
2022-08-20T12:42:01.778Z,77.708
2022-08-20T12:49:01.389Z,77.464
2022-08-20T12:56:02.157Z,77.464
2022-08-20T13:00:01.757Z,77.464
2022-08-20T13:07:01.873Z,76.361
2022-08-20T13:14:01.831Z,76.361
2022-08-20T13:21:02.093Z,75.235
2022-08-20T13:28:02.087Z,73.681
2022-08-20T13:35:01.803Z,73.681
2022-08-20T13:42:01.468Z,71.439
2022-08-20T13:49:02.170Z,71.439
2022-08-20T13:56:01.463Z,70.354
2022-08-20T14:00:02.084Z,70.354
2022-08-20T14:07:01.497Z,69.823
2022-08-20T14:14:02.306Z,69.823
2022-08-20T14:21:01.840Z,67.245
2022-08-20T14:28:02.307Z,67.245
2022-08-20T14:35:02.046Z,66.37
2022-08-20T14:42:02.190Z,66.37
2022-08-20T14:49:01.351Z,65.711
2022-08-20T14:56:01.892Z,65.711
2022-08-20T15:00:02.641Z,65.063
2022-08-20T15:07:10.744Z,65.063
2022-08-20T15:14:02.099Z,64.709
2022-08-20T15:21:01.343Z,64.709
2022-08-20T15:28:01.923Z,64.694
2022-08-20T15:35:01.727Z,64.694
2022-08-20T15:42:01.389Z,63.789
2022-08-20T15:49:01.418Z,64.637
2022-08-20T15:56:02.335Z,64.637
2022-08-20T16:00:01.955Z,64.637
2022-08-20T16:07:01.757Z,64.401
2022-08-20T16:14:01.358Z,64.401
2022-08-20T16:21:03.807Z,63.958
2022-08-20T16:28:02.224Z,63.429
2022-08-20T16:35:01.584Z,63.429
2022-08-20T16:42:05.872Z,61.954
2022-08-20T16:49:01.491Z,61.954
2022-08-20T16:56:02.230Z,61.602
2022-08-20T17:00:01.849Z,61.602
2022-08-20T17:07:02.197Z,61.02
2022-08-20T17:14:01.999Z,61.02
2022-08-20T17:21:02.101Z,60.886
2022-08-20T17:28:02.088Z,60.886
2022-08-20T17:35:02.374Z,60.903
2022-08-20T17:42:02.134Z,60.903
2022-08-20T17:49:01.852Z,61.3
2022-08-20T17:56:01.945Z,61.3
2022-08-20T18:00:02.870Z,61.212
2022-08-20T18:07:01.497Z,61.212
2022-08-20T18:14:01.886Z,61.478
2022-08-20T18:21:02.068Z,61.478
2022-08-20T18:28:01.415Z,61.878
2022-08-20T18:35:03.973Z,61.878
2022-08-20T18:42:01.667Z,61.493
2022-08-20T18:49:01.471Z,62.52
2022-08-20T18:56:01.795Z,62.52
2022-08-20T19:00:02.416Z,62.52
2022-08-20T19:07:02.011Z,63.096
2022-08-20T19:14:01.635Z,63.096
2022-08-20T19:21:02.028Z,64.464
2022-08-20T19:28:02.566Z,64.65
2022-08-20T19:35:01.902Z,64.65
2022-08-20T19:42:01.780Z,65.399
2022-08-20T19:49:01.873Z,65.399
2022-08-20T19:56:02.259Z,65.184
2022-08-20T20:00:01.878Z,65.184
2022-08-20T20:07:01.871Z,64.511
2022-08-20T20:14:02.295Z,64.511
2022-08-20T20:21:01.466Z,64.52
2022-08-20T20:28:01.868Z,64.52
2022-08-20T20:35:01.871Z,64.195
2022-08-20T20:42:01.636Z,64.195
2022-08-20T20:49:01.498Z,64.457
2022-08-20T20:56:01.557Z,64.457
2022-08-20T21:00:02.226Z,64.819
2022-08-20T21:07:01.439Z,64.819
2022-08-20T21:14:02.275Z,65.125
2022-08-20T21:21:01.745Z,65.125
2022-08-20T21:28:02.121Z,65.134
2022-08-20T21:35:02.011Z,65.134
2022-08-20T21:42:01.641Z,65.418
2022-08-20T21:49:01.436Z,65.752
2022-08-20T21:56:01.568Z,65.752
2022-08-20T22:00:02.117Z,65.752
2022-08-20T22:07:01.806Z,65.767
2022-08-20T22:14:01.429Z,65.767
2022-08-20T22:21:02.095Z,65.747
2022-08-20T22:28:02.061Z,65.92
2022-08-20T22:35:01.721Z,65.92
2022-08-20T22:42:01.566Z,66.014
2022-08-20T22:49:02.118Z,66.014
2022-08-20T22:56:02.301Z,66.137
2022-08-20T23:00:01.881Z,66.137
2022-08-20T23:07:02.063Z,66.092
2022-08-20T23:14:01.346Z,66.092
2022-08-20T23:21:01.529Z,66.341
2022-08-20T23:28:04.394Z,66.341
2022-08-20T23:35:01.924Z,66.556
2022-08-20T23:42:01.390Z,66.556
2022-08-20T23:49:02.094Z,67.182
2022-08-20T23:56:01.837Z,67.182
